Time;durP1;ratioP1;P1;durP2;ratioP2;P2;SDS_P1;SDS_P2;PMS_P1;PMS_P2;Temp;Humidity;BMP_temperature;BMP_pressure;BME280_temperature;BME280_humidity;BME280_pressure;Samples;Min_cycle;Max_cycle;Signal;HPM_P1;HPM_P2
2023/10/31 00:01:31;;;;;;;4.18;0.70;;;;;;;;;;5065264;28;20087;-64
2023/10/31 00:03:58;;;;;;;7.03;0.90;;;;;;;;;;5056498;28;20050;-64
2023/10/31 00:06:25;;;;;;;4.75;0.75;;;;;;;;;;5064188;28;20049;-64
2023/10/31 00:08:53;;;;;;;5.30;0.55;;;;;;;;;;5062643;28;20060;-65
2023/10/31 00:11:21;;;;;;;3.88;0.90;;;;;;;;;;5055523;28;20064;-64
2023/10/31 00:13:48;;;;;;;3.05;0.68;;;;;;;;;;5056577;28;20056;-64
2023/10/31 00:16:17;;;;;;;3.00;0.55;;;;;;;;;;5057242;28;20495;-65
2023/10/31 00:18:44;;;;;;;5.75;1.50;;;;;;;;;;5055841;28;20053;-65
2023/10/31 00:21:11;;;;;;;3.60;1.13;;;;;;;;;;5066370;28;20462;-64
2023/10/31 00:23:44;;;;;;;2.45;0.90;;;;;;;;;;5061787;28;20057;-65
2023/10/31 00:26:11;;;;;;;4.90;1.27;;;;;;;;;;5057798;28;20058;-65
2023/10/31 00:28:39;;;;;;;3.47;1.48;;;;;;;;;;5066534;28;20045;-65
2023/10/31 00:31:07;;;;;;;5.60;1.70;;;;;;;;;;5060794;28;20056;-65
2023/10/31 00:33:35;;;;;;;8.45;2.40;;;;;;;;;;5057060;28;20076;-64
2023/10/31 00:36:02;;;;;;;4.65;2.00;;;;;;;;;;5058965;28;20048;-64
2023/10/31 00:38:30;;;;;;;7.63;2.50;;;;;;;;;;5061545;28;20386;-63
2023/10/31 00:40:57;;;;;;;7.85;2.08;;;;;;;;;;5063927;28;20107;-64
2023/10/31 00:43:24;;;;;;;5.78;2.30;;;;;;;;;;5061466;28;20053;-65
2023/10/31 00:45:53;;;;;;;9.65;2.60;;;;;;;;;;5058843;28;20044;-63
2023/10/31 00:48:21;;;;;;;7.53;2.38;;;;;;;;;;5055977;28;20124;-63
2023/10/31 00:50:48;;;;;;;4.40;2.08;;;;;;;;;;5060258;28;20049;-64
2023/10/31 00:53:16;;;;;;;9.70;2.78;;;;;;;;;;5058834;28;20044;-63
2023/10/31 00:55:44;;;;;;;9.68;2.15;;;;;;;;;;5053556;28;20053;-64
2023/10/31 00:58:11;;;;;;;7.35;1.55;;;;;;;;;;5060293;28;20095;-63
2023/10/31 01:00:38;;;;;;;12.60;1.67;;;;;;;;;;5057748;28;20049;-64
2023/10/31 01:03:07;;;;;;;14.35;1.60;;;;;;;;;;5061639;28;20052;-66
2023/10/31 01:05:34;;;;;;;22.33;1.45;;;;;;;;;;5058664;28;20471;-64
2023/10/31 01:08:01;;;;;;;16.23;1.92;;;;;;;;;;5060176;28;20040;-63
2023/10/31 01:10:29;;;;;;;10.05;1.17;;;;;;;;;;5062426;28;20147;-63
2023/10/31 01:12:56;;;;;;;13.07;1.60;;;;;;;;;;5054422;28;20052;-64
2023/10/31 01:15:23;;;;;;;12.43;1.02;;;;;;;;;;5059165;28;20056;-67
2023/10/31 01:17:50;;;;;;;7.15;1.27;;;;;;;;;;5057822;28;20045;-64
2023/10/31 01:20:19;;;;;;;14.85;1.38;;;;;;;;;;5052898;28;20049;-65
2023/10/31 01:22:46;;;;;;;9.38;1.10;;;;;;;;;;5050563;28;20048;-64
2023/10/31 01:25:13;;;;;;;15.43;1.30;;;;;;;;;;5061003;28;20060;-65
2023/10/31 01:27:41;;;;;;;9.82;1.20;;;;;;;;;;5056408;28;20063;-65
2023/10/31 01:30:09;;;;;;;12.15;1.23;;;;;;;;;;5057263;28;20048;-66
2023/10/31 01:32:37;;;;;;;23.08;1.50;;;;;;;;;;5056102;28;20053;-67
2023/10/31 01:35:04;;;;;;;12.75;1.48;;;;;;;;;;5057888;28;20519;-65
2023/10/31 01:37:32;;;;;;;12.27;1.38;;;;;;;;;;5060928;28;20484;-65
2023/10/31 01:40:00;;;;;;;8.57;1.33;;;;;;;;;;5054721;28;20056;-67
2023/10/31 01:42:27;;;;;;;7.60;1.08;;;;;;;;;;5057533;28;20053;-65
2023/10/31 01:44:54;;;;;;;8.70;1.42;;;;;;;;;;5055713;28;20107;-65
2023/10/31 01:47:23;;;;;;;6.85;1.20;;;;;;;;;;5055895;28;20048;-65
2023/10/31 01:49:51;;;;;;;15.40;1.50;;;;;;;;;;5060606;28;20042;-65
2023/10/31 01:52:18;;;;;;;10.07;1.42;;;;;;;;;;5055206;28;20052;-65
2023/10/31 01:54:47;;;;;;;9.38;1.27;;;;;;;;;;5058198;28;20056;-66
2023/10/31 01:57:14;;;;;;;18.63;1.50;;;;;;;;;;5061301;28;20052;-66
2023/10/31 01:59:42;;;;;;;5.35;1.10;;;;;;;;;;5056504;28;20052;-65
2023/10/31 02:02:09;;;;;;;7.80;1.25;;;;;;;;;;5057374;28;20066;-66
2023/10/31 02:04:36;;;;;;;12.45;1.40;;;;;;;;;;5066503;28;20464;-65
2023/10/31 02:07:03;;;;;;;6.28;1.10;;;;;;;;;;5064434;28;20051;-65
2023/10/31 02:09:31;;;;;;;16.17;1.73;;;;;;;;;;5053958;28;20500;-65
2023/10/31 02:11:59;;;;;;;14.88;1.52;;;;;;;;;;5060851;28;20056;-64
2023/10/31 02:14:26;;;;;;;9.32;1.40;;;;;;;;;;5056726;28;20060;-64
2023/10/31 02:16:54;;;;;;;10.63;2.03;;;;;;;;;;5051651;28;20052;-65
2023/10/31 02:19:22;;;;;;;16.35;1.90;;;;;;;;;;5059747;28;20044;-65
2023/10/31 02:21:50;;;;;;;10.88;1.67;;;;;;;;;;5058542;28;20041;-64
2023/10/31 02:24:17;;;;;;;10.57;1.63;;;;;;;;;;5055845;28;20055;-64
2023/10/31 02:26:45;;;;;;;7.93;1.80;;;;;;;;;;5057657;28;20076;-64
2023/10/31 02:29:12;;;;;;;12.35;1.77;;;;;;;;;;5054079;28;20075;-66
2023/10/31 02:31:39;;;;;;;18.65;1.63;;;;;;;;;;5051783;28;20045;-64
2023/10/31 02:34:06;;;;;;;25.40;2.17;;;;;;;;;;5060183;28;20053;-64
2023/10/31 02:36:34;;;;;;;12.95;2.15;;;;;;;;;;5057323;28;20049;-64
2023/10/31 02:39:03;;;;;;;10.25;1.48;;;;;;;;;;5061651;28;20052;-64
2023/10/31 02:41:30;;;;;;;12.82;1.40;;;;;;;;;;5057055;28;20065;-64
2023/10/31 02:43:58;;;;;;;21.92;1.85;;;;;;;;;;5053680;28;20057;-64
2023/10/31 02:46:25;;;;;;;14.25;1.45;;;;;;;;;;5059517;28;20053;-64
2023/10/31 02:48:52;;;;;;;8.18;1.58;;;;;;;;;;5053556;28;20084;-66
2023/10/31 02:51:19;;;;;;;3.53;1.17;;;;;;;;;;5051380;28;20045;-64
2023/10/31 02:53:46;;;;;;;18.00;2.20;;;;;;;;;;5054818;28;20049;-64
2023/10/31 02:56:15;;;;;;;11.48;1.95;;;;;;;;;;5055133;28;20060;-64
2023/10/31 02:58:42;;;;;;;10.35;1.50;;;;;;;;;;5066658;28;20062;-67
2023/10/31 03:01:09;;;;;;;14.45;1.90;;;;;;;;;;5055702;28;20056;-63
2023/10/31 03:03:37;;;;;;;13.77;1.45;;;;;;;;;;5054002;28;20049;-64
2023/10/31 03:06:06;;;;;;;8.80;1.52;;;;;;;;;;5057890;28;20408;-64
2023/10/31 03:08:33;;;;;;;10.27;1.40;;;;;;;;;;5059617;28;20098;-64
2023/10/31 03:11:00;;;;;;;8.00;1.33;;;;;;;;;;5062707;28;20044;-63
2023/10/31 03:13:29;;;;;;;10.10;1.50;;;;;;;;;;5058387;28;20065;-65
2023/10/31 03:15:56;;;;;;;11.88;1.50;;;;;;;;;;5066761;28;20066;-63
2023/10/31 03:18:23;;;;;;;6.75;1.30;;;;;;;;;;5054438;28;20048;-63
2023/10/31 03:20:50;;;;;;;7.07;1.00;;;;;;;;;;5058162;28;20044;-64
2023/10/31 03:23:18;;;;;;;3.97;1.15;;;;;;;;;;5058876;28;20128;-65
2023/10/31 03:25:45;;;;;;;6.38;1.05;;;;;;;;;;5060639;28;20056;-65
2023/10/31 03:28:19;;;;;;;11.52;1.20;;;;;;;;;;5065771;28;20135;-65
2023/10/31 03:30:48;;;;;;;7.28;1.08;;;;;;;;;;5054193;28;20049;-65
2023/10/31 03:33:16;;;;;;;5.82;1.20;;;;;;;;;;5060089;28;20040;-65
2023/10/31 03:35:44;;;;;;;8.57;1.58;;;;;;;;;;5059195;28;20059;-68
2023/10/31 03:38:11;;;;;;;6.75;1.20;;;;;;;;;;5059474;28;20088;-64
2023/10/31 03:40:38;;;;;;;12.10;1.45;;;;;;;;;;5062702;28;20072;-65
2023/10/31 03:43:06;;;;;;;5.72;0.98;;;;;;;;;;5057441;28;20408;-65
2023/10/31 03:45:33;;;;;;;10.52;0.98;;;;;;;;;;5059878;28;20057;-64
2023/10/31 03:48:01;;;;;;;10.15;0.88;;;;;;;;;;5061510;28;20063;-66
2023/10/31 03:50:29;;;;;;;2.25;0.40;;;;;;;;;;5061707;28;20128;-64
2023/10/31 03:52:56;;;;;;;3.83;0.80;;;;;;;;;;5059505;28;20049;-67
2023/10/31 03:55:23;;;;;;;3.63;0.40;;;;;;;;;;5060641;28;20397;-66
2023/10/31 03:57:50;;;;;;;8.93;0.63;;;;;;;;;;5064889;28;20510;-64
2023/10/31 04:00:18;;;;;;;9.38;0.70;;;;;;;;;;5063254;28;20052;-64
2023/10/31 04:02:45;;;;;;;4.22;0.50;;;;;;;;;;5062871;28;20154;-64
2023/10/31 04:05:14;;;;;;;5.50;0.52;;;;;;;;;;5060744;28;20045;-64
2023/10/31 04:07:41;;;;;;;4.88;0.60;;;;;;;;;;5059324;28;20045;-64
2023/10/31 04:10:09;;;;;;;8.10;0.60;;;;;;;;;;5060072;28;20056;-64
2023/10/31 04:12:37;;;;;;;6.93;0.90;;;;;;;;;;5059423;28;20048;-63
2023/10/31 04:15:04;;;;;;;5.00;0.80;;;;;;;;;;5057462;28;20059;-63
2023/10/31 04:17:31;;;;;;;3.50;1.00;;;;;;;;;;5058353;28;20044;-63
2023/10/31 04:19:59;;;;;;;7.13;1.13;;;;;;;;;;5062788;28;20131;-63
2023/10/31 04:22:27;;;;;;;7.88;0.98;;;;;;;;;;5063425;28;20064;-65
2023/10/31 04:24:54;;;;;;;5.88;0.65;;;;;;;;;;5057979;28;20044;-63
2023/10/31 04:27:22;;;;;;;6.05;0.63;;;;;;;;;;5061368;28;20079;-64
2023/10/31 04:29:49;;;;;;;7.07;0.65;;;;;;;;;;5061421;28;20055;-65
2023/10/31 04:32:16;;;;;;;7.65;0.80;;;;;;;;;;5062294;28;20049;-65
2023/10/31 04:34:43;;;;;;;3.22;0.50;;;;;;;;;;5056517;28;20049;-66
2023/10/31 04:37:11;;;;;;;3.00;0.60;;;;;;;;;;5062200;28;20048;-65
2023/10/31 04:39:39;;;;;;;7.53;0.60;;;;;;;;;;5059987;28;20063;-65
2023/10/31 04:42:07;;;;;;;2.47;0.60;;;;;;;;;;5054266;28;20053;-65
2023/10/31 04:44:34;;;;;;;7.63;0.82;;;;;;;;;;5063595;28;20040;-65
2023/10/31 04:47:01;;;;;;;10.18;1.08;;;;;;;;;;5059943;28;20447;-66
2023/10/31 04:49:28;;;;;;;8.80;0.93;;;;;;;;;;5054727;28;20094;-65
2023/10/31 04:51:55;;;;;;;7.05;0.90;;;;;;;;;;5053662;28;20071;-64
2023/10/31 04:54:23;;;;;;;5.22;0.77;;;;;;;;;;5056321;28;20044;-64
2023/10/31 04:56:51;;;;;;;8.75;1.13;;;;;;;;;;5064085;28;20407;-64
2023/10/31 04:59:18;;;;;;;7.43;0.80;;;;;;;;;;5065983;28;20396;-64
2023/10/31 05:01:50;;;;;;;6.22;0.70;;;;;;;;;;5064284;28;20063;-63
2023/10/31 05:04:18;;;;;;;6.88;0.80;;;;;;;;;;5059090;28;20584;-64
2023/10/31 05:06:45;;;;;;;7.85;1.08;;;;;;;;;;5062250;28;20048;-63
2023/10/31 05:09:13;;;;;;;7.63;0.80;;;;;;;;;;5063395;28;20120;-63
2023/10/31 05:11:40;;;;;;;9.52;0.90;;;;;;;;;;5063950;28;20511;-63
2023/10/31 05:14:10;;;;;;;11.13;2.35;;;;;;;;;;5063982;28;20060;-63
2023/10/31 05:16:41;;;;;;;11.85;1.00;;;;;;;;;;5059283;28;20045;-64
2023/10/31 05:19:08;;;;;;;3.35;0.80;;;;;;;;;;5060318;28;20450;-63
2023/10/31 05:21:36;;;;;;;6.63;0.82;;;;;;;;;;5053408;28;20052;-63
2023/10/31 05:24:03;;;;;;;7.57;1.00;;;;;;;;;;5060335;28;20045;-62
2023/10/31 05:26:30;;;;;;;6.03;0.70;;;;;;;;;;5057783;28;20517;-63
2023/10/31 05:28:58;;;;;;;3.47;0.82;;;;;;;;;;5064578;28;20510;-63
2023/10/31 05:31:26;;;;;;;4.45;0.70;;;;;;;;;;5057772;28;20052;-63
2023/10/31 05:33:54;;;;;;;2.88;0.80;;;;;;;;;;5061503;28;20504;-63
2023/10/31 05:36:22;;;;;;;7.30;0.80;;;;;;;;;;5061835;28;20592;-64
2023/10/31 05:38:49;;;;;;;8.00;0.98;;;;;;;;;;5065509;28;20408;-63
2023/10/31 05:41:17;;;;;;;3.55;0.90;;;;;;;;;;5064677;28;20094;-64
2023/10/31 05:43:44;;;;;;;7.05;1.00;;;;;;;;;;5059732;28;20051;-64
2023/10/31 05:46:13;;;;;;;8.80;1.00;;;;;;;;;;5061584;28;20615;-63
2023/10/31 05:48:43;;;;;;;9.43;0.82;;;;;;;;;;5067357;28;20082;-63
2023/10/31 05:51:13;;;;;;;2.92;0.80;;;;;;;;;;5063404;28;20048;-64
2023/10/31 05:53:41;;;;;;;7.82;0.80;;;;;;;;;;5058259;28;20048;-63
2023/10/31 05:56:09;;;;;;;12.85;0.93;;;;;;;;;;5057436;28;20494;-64
2023/10/31 05:58:36;;;;;;;9.00;1.00;;;;;;;;;;5062704;28;20071;-63
2023/10/31 06:01:03;;;;;;;9.55;0.98;;;;;;;;;;5061363;28;20048;-63
2023/10/31 06:03:30;;;;;;;7.70;0.75;;;;;;;;;;5052567;28;20048;-65
2023/10/31 06:05:59;;;;;;;7.97;0.68;;;;;;;;;;5055939;28;20120;-66
2023/10/31 06:08:28;;;;;;;3.15;0.70;;;;;;;;;;5063378;28;20055;-64
2023/10/31 06:10:56;;;;;;;7.30;0.80;;;;;;;;;;5052391;28;20124;-64
2023/10/31 06:13:23;;;;;;;7.55;0.90;;;;;;;;;;5057586;28;20051;-67
2023/10/31 06:15:50;;;;;;;7.05;0.88;;;;;;;;;;5059323;28;20041;-64
2023/10/31 06:18:17;;;;;;;4.45;0.70;;;;;;;;;;5055307;28;20044;-65
2023/10/31 06:20:44;;;;;;;3.20;0.40;;;;;;;;;;5057507;28;20515;-65
2023/10/31 06:23:13;;;;;;;4.20;0.77;;;;;;;;;;5055731;28;20056;-66
2023/10/31 06:25:40;;;;;;;5.68;0.50;;;;;;;;;;5052748;28;20052;-65
2023/10/31 06:28:07;;;;;;;4.57;0.50;;;;;;;;;;5057307;28;20060;-67
2023/10/31 06:30:35;;;;;;;10.15;0.60;;;;;;;;;;5052377;28;21327;-65
2023/10/31 06:33:02;;;;;;;6.28;0.70;;;;;;;;;;5062892;28;20049;-63
2023/10/31 06:35:29;;;;;;;4.65;0.35;;;;;;;;;;5056318;28;20052;-64
2023/10/31 06:37:57;;;;;;;7.22;0.63;;;;;;;;;;5058771;28;20053;-63
2023/10/31 06:40:26;;;;;;;4.43;0.47;;;;;;;;;;5058583;28;20052;-63
2023/10/31 06:42:54;;;;;;;6.38;0.63;;;;;;;;;;5062348;28;20618;-63
2023/10/31 06:45:21;;;;;;;11.77;3.97;;;;;;;;;;5060988;28;20060;-63
2023/10/31 06:47:48;;;;;;;3.53;0.40;;;;;;;;;;5056203;28;20052;-65
2023/10/31 06:50:16;;;;;;;5.32;0.38;;;;;;;;;;5060429;28;20055;-63
2023/10/31 06:52:43;;;;;;;5.68;0.88;;;;;;;;;;5056496;28;20389;-64
2023/10/31 06:55:10;;;;;;;4.88;1.08;;;;;;;;;;5057327;28;20051;-64
2023/10/31 06:57:39;;;;;;;4.32;0.30;;;;;;;;;;5063724;28;20049;-64
2023/10/31 07:00:08;;;;;;;7.70;0.52;;;;;;;;;;5062631;28;20048;-64
2023/10/31 07:02:36;;;;;;;5.97;0.65;;;;;;;;;;5063325;28;20484;-63
2023/10/31 07:05:04;;;;;;;1.17;0.20;;;;;;;;;;5058337;28;20071;-64
2023/10/31 07:07:31;;;;;;;4.85;0.22;;;;;;;;;;5058653;28;20064;-64
2023/10/31 07:09:58;;;;;;;8.10;0.30;;;;;;;;;;5061202;28;20052;-63
2023/10/31 07:12:26;;;;;;;6.82;0.28;;;;;;;;;;5058246;28;20522;-64
2023/10/31 07:14:55;;;;;;;4.68;0.25;;;;;;;;;;5062556;28;20052;-63
2023/10/31 07:17:22;;;;;;;3.45;0.40;;;;;;;;;;5057550;28;20114;-63
2023/10/31 07:19:49;;;;;;;5.78;0.30;;;;;;;;;;5064238;28;20048;-64
2023/10/31 07:22:17;;;;;;;7.57;0.38;;;;;;;;;;5055943;28;20472;-63
2023/10/31 07:24:44;;;;;;;4.38;0.30;;;;;;;;;;5058728;28;20057;-67
2023/10/31 07:27:11;;;;;;;2.28;0.22;;;;;;;;;;5059167;28;20074;-64
2023/10/31 07:29:41;;;;;;;7.00;0.40;;;;;;;;;;5061604;28;20052;-65
2023/10/31 07:32:10;;;;;;;3.30;0.30;;;;;;;;;;5065263;28;20055;-64
2023/10/31 07:34:37;;;;;;;8.98;0.38;;;;;;;;;;5061252;28;20049;-63
2023/10/31 07:37:04;;;;;;;8.73;0.32;;;;;;;;;;5062265;28;20411;-65
2023/10/31 07:39:32;;;;;;;4.53;0.52;;;;;;;;;;5067569;28;20052;-64
2023/10/31 07:41:59;;;;;;;6.65;0.50;;;;;;;;;;5060809;28;20056;-64
2023/10/31 07:44:26;;;;;;;4.43;0.30;;;;;;;;;;5055711;28;20052;-63
2023/10/31 07:46:53;;;;;;;3.50;0.40;;;;;;;;;;5054896;28;20511;-65
2023/10/31 07:49:22;;;;;;;6.20;0.50;;;;;;;;;;5056644;28;20048;-63
2023/10/31 07:51:50;;;;;;;6.07;0.50;;;;;;;;;;5058782;28;20048;-63
2023/10/31 07:54:17;;;;;;;14.20;0.90;;;;;;;;;;5058071;28;20063;-63
2023/10/31 07:56:44;;;;;;;9.07;0.50;;;;;;;;;;5061248;28;20041;-65
2023/10/31 07:59:12;;;;;;;15.68;0.75;;;;;;;;;;5067694;28;20057;-63
2023/10/31 08:01:39;;;;;;;12.13;1.00;;;;;;;;;;5063312;28;20052;-62
2023/10/31 08:04:06;;;;;;;11.23;1.60;;;;;;;;;;5055869;28;20049;-63
2023/10/31 08:06:35;;;;;;;6.72;0.52;;;;;;;;;;5057358;28;20053;-63
2023/10/31 08:09:03;;;;;;;8.82;0.70;;;;;;;;;;5057417;28;20044;-62
2023/10/31 08:11:30;;;;;;;12.18;0.82;;;;;;;;;;5055566;28;20467;-63
2023/10/31 08:13:57;;;;;;;8.68;0.70;;;;;;;;;;5051462;28;20057;-62
2023/10/31 08:16:24;;;;;;;13.35;0.77;;;;;;;;;;5065548;28;20047;-63
2023/10/31 08:18:52;;;;;;;8.50;0.50;;;;;;;;;;5063533;28;20045;-64
2023/10/31 08:21:20;;;;;;;10.55;0.90;;;;;;;;;;5063846;28;20061;-63
2023/10/31 08:23:48;;;;;;;5.63;0.68;;;;;;;;;;5056909;28;20056;-62
2023/10/31 08:26:15;;;;;;;7.57;0.85;;;;;;;;;;5056076;28;20052;-63
2023/10/31 08:28:43;;;;;;;6.32;0.73;;;;;;;;;;5057918;28;20044;-64
2023/10/31 08:31:10;;;;;;;8.90;0.60;;;;;;;;;;5059142;28;20055;-64
2023/10/31 08:33:37;;;;;;;4.75;0.65;;;;;;;;;;5054074;28;20449;-63
2023/10/31 08:36:06;;;;;;;5.70;0.60;;;;;;;;;;5063878;28;20060;-64
2023/10/31 08:38:33;;;;;;;4.82;0.40;;;;;;;;;;5068452;28;20517;-63
2023/10/31 08:41:02;;;;;;;8.15;0.98;;;;;;;;;;5056487;28;20059;-65
2023/10/31 08:43:29;;;;;;;13.40;0.60;;;;;;;;;;5053106;28;20048;-65
2023/10/31 08:45:56;;;;;;;7.03;0.60;;;;;;;;;;5065494;28;20053;-63
2023/10/31 08:48:24;;;;;;;8.40;0.60;;;;;;;;;;5057023;28;20083;-64
2023/10/31 08:50:52;;;;;;;14.13;0.80;;;;;;;;;;5060602;28;20064;-64
2023/10/31 08:53:19;;;;;;;12.48;0.68;;;;;;;;;;5056507;28;20053;-64
2023/10/31 08:55:47;;;;;;;2.63;0.30;;;;;;;;;;5063812;28;20052;-63
2023/10/31 08:58:18;;;;;;;8.15;0.60;;;;;;;;;;5065919;28;20067;-63
2023/10/31 09:00:45;;;;;;;7.82;0.60;;;;;;;;;;5058114;28;20419;-64
2023/10/31 09:03:12;;;;;;;5.28;0.50;;;;;;;;;;5056152;28;20053;-64
2023/10/31 09:05:39;;;;;;;7.03;0.40;;;;;;;;;;5053973;28;20045;-62
2023/10/31 09:08:07;;;;;;;7.05;0.50;;;;;;;;;;5057924;28;20041;-64
2023/10/31 09:10:34;;;;;;;10.90;0.55;;;;;;;;;;5055313;28;20047;-64
2023/10/31 09:13:01;;;;;;;11.68;1.05;;;;;;;;;;5059636;28;20049;-63
2023/10/31 09:15:30;;;;;;;8.02;0.50;;;;;;;;;;5060495;28;20052;-65
2023/10/31 09:17:57;;;;;;;7.05;0.50;;;;;;;;;;5054734;28;20061;-64
2023/10/31 09:20:24;;;;;;;3.53;0.50;;;;;;;;;;5061669;28;20041;-63
2023/10/31 09:22:52;;;;;;;7.43;0.88;;;;;;;;;;5061687;28;20069;-63
2023/10/31 09:25:19;;;;;;;7.97;0.50;;;;;;;;;;5055160;28;20124;-63
2023/10/31 09:27:47;;;;;;;8.00;0.65;;;;;;;;;;5067734;28;20048;-64
2023/10/31 09:30:14;;;;;;;6.30;0.55;;;;;;;;;;5064452;28;20062;-64
2023/10/31 09:32:42;;;;;;;6.35;0.43;;;;;;;;;;5065647;28;20049;-64
2023/10/31 09:35:10;;;;;;;3.30;0.45;;;;;;;;;;5064649;28;20079;-63
2023/10/31 09:37:37;;;;;;;10.95;0.47;;;;;;;;;;5057852;28;20056;-63
2023/10/31 09:40:04;;;;;;;7.72;0.70;;;;;;;;;;5065262;28;20048;-63
2023/10/31 09:42:32;;;;;;;5.38;0.60;;;;;;;;;;5061907;28;20041;-64
2023/10/31 09:44:59;;;;;;;4.32;0.40;;;;;;;;;;5058974;28;20045;-63
2023/10/31 09:47:27;;;;;;;3.28;0.60;;;;;;;;;;5066515;28;20049;-64
2023/10/31 09:49:55;;;;;;;3.28;0.40;;;;;;;;;;5067587;28;20059;-64
2023/10/31 09:52:24;;;;;;;10.50;1.30;;;;;;;;;;5055803;28;20055;-64
2023/10/31 09:54:52;;;;;;;6.65;0.65;;;;;;;;;;5060547;28;20059;-63
2023/10/31 09:57:19;;;;;;;5.25;0.45;;;;;;;;;;5060216;28;20049;-63
2023/10/31 09:59:47;;;;;;;5.13;0.63;;;;;;;;;;5055312;28;20049;-64
2023/10/31 10:02:14;;;;;;;8.38;0.75;;;;;;;;;;5062649;28;20484;-63
2023/10/31 10:04:41;;;;;;;11.10;0.82;;;;;;;;;;5052115;28;20052;-63
2023/10/31 10:07:10;;;;;;;3.67;0.73;;;;;;;;;;5056006;28;20500;-66
2023/10/31 10:09:37;;;;;;;10.23;0.60;;;;;;;;;;5061638;28;20045;-63
2023/10/31 10:12:06;;;;;;;5.55;0.68;;;;;;;;;;5056348;28;20507;-64
2023/10/31 10:14:33;;;;;;;5.97;0.90;;;;;;;;;;5055992;28;20056;-64
2023/10/31 10:17:01;;;;;;;7.55;0.60;;;;;;;;;;5060037;28;20365;-64
2023/10/31 10:19:28;;;;;;;11.45;0.80;;;;;;;;;;5059909;28;20052;-64
2023/10/31 10:21:56;;;;;;;4.68;0.60;;;;;;;;;;5063624;28;20408;-63
2023/10/31 10:24:25;;;;;;;6.60;0.50;;;;;;;;;;5062288;28;20056;-64
2023/10/31 10:26:53;;;;;;;10.70;0.50;;;;;;;;;;5062487;28;20042;-64
2023/10/31 10:29:20;;;;;;;9.48;0.60;;;;;;;;;;5061987;28;20063;-63
2023/10/31 10:31:47;;;;;;;5.93;0.47;;;;;;;;;;5052911;28;20496;-63
2023/10/31 10:34:15;;;;;;;1.52;0.25;;;;;;;;;;5061587;28;20059;-63
2023/10/31 10:36:47;;;;;;;2.45;0.50;;;;;;;;;;5056019;28;20040;-64
2023/10/31 10:39:16;;;;;;;9.38;0.47;;;;;;;;;;5057040;28;20067;-63
2023/10/31 10:41:45;;;;;;;2.85;0.38;;;;;;;;;;5065803;28;20063;-64
2023/10/31 10:44:13;;;;;;;7.22;0.60;;;;;;;;;;5063015;28;20439;-66
2023/10/31 10:46:41;;;;;;;6.20;0.40;;;;;;;;;;5062502;28;20060;-65
2023/10/31 10:49:09;;;;;;;5.55;0.52;;;;;;;;;;5065474;28;20067;-66
2023/10/31 10:51:43;;;;;;;14.60;0.52;;;;;;;;;;5061907;28;20151;-64
2023/10/31 10:54:14;;;;;;;4.22;0.40;;;;;;;;;;5061857;28;20087;-65
2023/10/31 10:56:48;;;;;;;6.95;0.57;;;;;;;;;;5068305;28;20036;-63
2023/10/31 10:59:19;;;;;;;4.35;0.60;;;;;;;;;;5061909;28;20060;-64
2023/10/31 11:01:48;;;;;;;4.63;0.60;;;;;;;;;;5056817;28;20507;-64
2023/10/31 11:04:16;;;;;;;9.38;0.40;;;;;;;;;;5065400;28;20053;-63
2023/10/31 11:06:44;;;;;;;10.07;0.77;;;;;;;;;;5065543;28;20047;-63
2023/10/31 11:09:12;;;;;;;5.95;0.60;;;;;;;;;;5062821;28;20726;-64
2023/10/31 11:11:39;;;;;;;11.95;0.60;;;;;;;;;;5065948;28;20052;-64
2023/10/31 11:14:06;;;;;;;10.95;0.52;;;;;;;;;;5066347;28;20126;-63
2023/10/31 11:16:38;;;;;;;7.63;0.60;;;;;;;;;;5063847;28;20123;-63
2023/10/31 11:19:05;;;;;;;7.13;0.60;;;;;;;;;;5062272;28;20454;-64
2023/10/31 11:21:33;;;;;;;4.03;0.55;;;;;;;;;;5061488;28;20044;-64
2023/10/31 11:24:00;;;;;;;5.32;0.57;;;;;;;;;;5056123;28;20056;-64
2023/10/31 11:26:28;;;;;;;4.32;0.55;;;;;;;;;;5060230;28;20045;-64
2023/10/31 11:29:05;;;;;;;8.70;0.80;;;;;;;;;;5062817;28;20106;-64
2023/10/31 11:31:33;;;;;;;3.58;0.77;;;;;;;;;;5063096;28;20076;-65
2023/10/31 11:34:03;;;;;;;5.13;0.57;;;;;;;;;;5059690;28;20109;-64
2023/10/31 11:36:34;;;;;;;9.63;0.50;;;;;;;;;;5057778;28;20049;-64
2023/10/31 11:39:12;;;;;;;11.05;0.73;;;;;;;;;;5066610;28;20045;-64
2023/10/31 11:41:40;;;;;;;4.88;0.40;;;;;;;;;;5062842;28;20503;-64
2023/10/31 11:44:07;;;;;;;4.80;0.35;;;;;;;;;;5065751;28;20048;-65
2023/10/31 11:46:34;;;;;;;5.60;0.63;;;;;;;;;;5066370;28;20045;-64
2023/10/31 11:49:05;;;;;;;5.93;1.27;;;;;;;;;;5060847;28;20048;-64
2023/10/31 11:51:32;;;;;;;3.00;0.25;;;;;;;;;;5064116;28;20048;-63
2023/10/31 11:54:01;;;;;;;4.55;0.50;;;;;;;;;;5060271;28;20052;-64
2023/10/31 11:56:28;;;;;;;1.73;0.20;;;;;;;;;;5065538;28;20088;-66
2023/10/31 11:58:59;;;;;;;9.45;0.70;;;;;;;;;;5062339;28;20040;-67
2023/10/31 12:01:26;;;;;;;8.27;0.63;;;;;;;;;;5056382;28;20048;-66
2023/10/31 12:03:53;;;;;;;6.50;0.52;;;;;;;;;;5062532;28;20044;-66
2023/10/31 12:06:22;;;;;;;8.30;0.50;;;;;;;;;;5058795;28;20044;-66
2023/10/31 12:08:50;;;;;;;5.28;0.60;;;;;;;;;;5065559;28;20051;-66
2023/10/31 12:11:17;;;;;;;8.88;0.40;;;;;;;;;;5060836;28;20102;-66
2023/10/31 12:13:53;;;;;;;3.17;0.43;;;;;;;;;;5062812;28;20064;-66
2023/10/31 12:16:21;;;;;;;4.38;0.50;;;;;;;;;;5066710;28;20055;-66
2023/10/31 12:18:55;;;;;;;8.32;0.43;;;;;;;;;;5060382;28;20045;-66
2023/10/31 12:21:36;;;;;;;7.30;0.77;;;;;;;;;;5060973;28;20056;-66
2023/10/31 12:24:04;;;;;;;6.20;0.50;;;;;;;;;;5060845;28;20048;-66
2023/10/31 12:26:34;;;;;;;2.83;0.40;;;;;;;;;;5057914;28;20045;-66
2023/10/31 12:29:14;;;;;;;4.53;0.40;;;;;;;;;;5065378;28;20045;-66
2023/10/31 12:31:43;;;;;;;4.38;0.55;;;;;;;;;;5054141;28;20052;-66
2023/10/31 12:34:11;;;;;;;8.40;0.70;;;;;;;;;;5062017;28;20052;-66
2023/10/31 12:36:40;;;;;;;2.17;0.28;;;;;;;;;;5055791;28;20460;-66
2023/10/31 12:39:09;;;;;;;0.73;0.20;;;;;;;;;;5065155;28;20056;-66
2023/10/31 12:41:36;;;;;;;4.93;0.40;;;;;;;;;;5053738;28;20488;-66
2023/10/31 12:44:05;;;;;;;7.32;0.40;;;;;;;;;;5059325;28;20060;-66
2023/10/31 12:46:35;;;;;;;2.53;0.30;;;;;;;;;;5061235;28;20498;-66
2023/10/31 12:49:02;;;;;;;1.55;0.40;;;;;;;;;;5056451;28;20084;-66
2023/10/31 12:51:29;;;;;;;1.55;0.32;;;;;;;;;;5054749;28;20052;-66
2023/10/31 12:53:58;;;;;;;6.03;0.40;;;;;;;;;;5058347;28;20057;-66
2023/10/31 12:56:41;;;;;;;7.03;0.38;;;;;;;;;;5057614;28;20383;-66
2023/10/31 12:59:09;;;;;;;1.02;0.30;;;;;;;;;;5058077;28;20057;-66
2023/10/31 13:01:36;;;;;;;3.42;0.20;;;;;;;;;;5058189;28;20508;-66
2023/10/31 13:04:04;;;;;;;7.57;0.32;;;;;;;;;;5059895;28;20055;-67
2023/10/31 13:06:31;;;;;;;5.32;0.40;;;;;;;;;;5061904;28;20052;-66
2023/10/31 13:09:01;;;;;;;4.40;0.28;;;;;;;;;;5064570;28;20052;-66
2023/10/31 13:11:31;;;;;;;1.17;0.28;;;;;;;;;;5052940;28;20067;-67
2023/10/31 13:13:58;;;;;;;3.70;0.50;;;;;;;;;;5053092;28;20053;-67
2023/10/31 13:16:26;;;;;;;8.70;0.40;;;;;;;;;;5057004;28;20044;-67
2023/10/31 13:18:54;;;;;;;1.95;0.20;;;;;;;;;;5062450;28;20052;-67
2023/10/31 13:21:21;;;;;;;1.23;0.20;;;;;;;;;;5059215;28;20044;-66
2023/10/31 13:23:48;;;;;;;1.73;0.20;;;;;;;;;;5056450;28;20404;-67
2023/10/31 13:26:17;;;;;;;4.07;0.30;;;;;;;;;;5059125;28;20055;-67
2023/10/31 13:28:44;;;;;;;2.63;0.10;;;;;;;;;;5055947;28;20044;-67
2023/10/31 13:31:15;;;;;;;1.30;0.30;;;;;;;;;;5060996;28;20055;-67
2023/10/31 13:33:42;;;;;;;4.70;0.10;;;;;;;;;;5061788;28;20151;-67
2023/10/31 13:36:10;;;;;;;6.93;0.40;;;;;;;;;;5061830;28;20139;-67
2023/10/31 13:38:38;;;;;;;2.88;0.30;;;;;;;;;;5064337;28;20044;-67
2023/10/31 13:41:05;;;;;;;4.20;0.20;;;;;;;;;;5061152;28;20052;-67
2023/10/31 13:43:34;;;;;;;2.67;0.30;;;;;;;;;;5066775;28;20052;-67
2023/10/31 13:46:01;;;;;;;3.75;0.35;;;;;;;;;;5060244;28;20045;-67
2023/10/31 13:48:28;;;;;;;1.70;0.30;;;;;;;;;;5068423;28;20048;-67
2023/10/31 13:50:56;;;;;;;3.40;0.45;;;;;;;;;;5065353;28;20127;-67
2023/10/31 13:53:23;;;;;;;2.92;0.45;;;;;;;;;;5061563;28;20049;-67
2023/10/31 13:55:50;;;;;;;3.30;0.40;;;;;;;;;;5058565;28;20389;-67
2023/10/31 13:58:17;;;;;;;1.25;0.38;;;;;;;;;;5062127;28;20048;-67
2023/10/31 14:00:46;;;;;;;1.17;0.20;;;;;;;;;;5064299;28;20058;-67
2023/10/31 14:03:15;;;;;;;1.20;0.30;;;;;;;;;;5057114;28;20055;-67
2023/10/31 14:05:42;;;;;;;2.72;0.30;;;;;;;;;;5068276;28;20059;-67
2023/10/31 14:08:11;;;;;;;0.75;0.30;;;;;;;;;;5065004;28;20121;-67
2023/10/31 14:10:39;;;;;;;2.53;0.73;;;;;;;;;;5066566;28;20475;-67
2023/10/31 14:13:07;;;;;;;2.42;0.32;;;;;;;;;;5062611;28;20078;-67
2023/10/31 14:15:34;;;;;;;2.55;0.50;;;;;;;;;;5063308;28;20223;-67
2023/10/31 14:18:03;;;;;;;1.88;0.40;;;;;;;;;;5061136;28;20040;-67
2023/10/31 14:20:30;;;;;;;4.32;0.43;;;;;;;;;;5065088;28;20052;-67
2023/10/31 14:22:58;;;;;;;0.95;0.40;;;;;;;;;;5063331;28;20051;-67
2023/10/31 14:25:25;;;;;;;4.97;0.20;;;;;;;;;;5058432;28;20049;-67
2023/10/31 14:27:52;;;;;;;9.18;0.40;;;;;;;;;;5065716;28;20499;-67
2023/10/31 14:30:19;;;;;;;1.40;0.40;;;;;;;;;;5056049;28;20420;-67
2023/10/31 14:32:46;;;;;;;6.28;0.40;;;;;;;;;;5056227;28;20044;-67
2023/10/31 14:35:15;;;;;;;4.10;0.40;;;;;;;;;;5064436;28;20354;-67
2023/10/31 14:37:43;;;;;;;8.98;0.50;;;;;;;;;;5057846;28;20037;-67
2023/10/31 14:40:11;;;;;;;3.78;0.40;;;;;;;;;;5066706;28;20044;-67
2023/10/31 14:42:38;;;;;;;3.83;0.30;;;;;;;;;;5056293;28;20173;-67
2023/10/31 14:45:06;;;;;;;4.32;0.30;;;;;;;;;;5058579;28;20090;-67